createdAt,value
2022-08-29T00:01:21.324Z,99.90
2022-08-29T00:03:50.335Z,99.90
2022-08-29T00:06:17.658Z,99.90
2022-08-29T00:08:44.952Z,99.90
2022-08-29T00:11:12.884Z,99.90
2022-08-29T00:13:41.186Z,99.90
2022-08-29T00:16:08.831Z,99.90
2022-08-29T00:18:36.614Z,99.90
2022-08-29T00:21:05.132Z,99.90
2022-08-29T00:23:32.415Z,99.90
2022-08-29T00:25:59.642Z,99.90
2022-08-29T00:28:27.073Z,99.90
2022-08-29T00:30:54.567Z,99.90
2022-08-29T00:33:21.795Z,99.90
2022-08-29T00:35:49.058Z,99.90
2022-08-29T00:38:18.228Z,99.90
2022-08-29T00:40:53.747Z,99.90
2022-08-29T00:43:27.435Z,99.90
2022-08-29T00:46:53.781Z,99.90
2022-08-29T00:49:29.562Z,99.90
2022-08-29T00:51:59.435Z,99.90
2022-08-29T00:54:27.928Z,99.90
2022-08-29T00:56:56.005Z,99.90
2022-08-29T00:59:28.867Z,99.90
2022-08-29T01:01:56.185Z,99.90
2022-08-29T01:04:24.527Z,99.90
2022-08-29T01:06:53.775Z,99.90
2022-08-29T01:09:21.991Z,99.90
2022-08-29T01:12:07.970Z,99.90
2022-08-29T01:14:38.589Z,99.90
2022-08-29T01:17:08.640Z,99.90
2022-08-29T01:19:52.127Z,99.90
2022-08-29T01:22:34.917Z,99.90
2022-08-29T01:25:06.160Z,99.90
2022-08-29T01:27:36.719Z,99.90
2022-08-29T01:30:06.354Z,99.90
2022-08-29T01:32:33.798Z,99.90
2022-08-29T01:35:01.218Z,99.90
2022-08-29T01:37:33.918Z,99.90
2022-08-29T01:40:01.255Z,99.90
2022-08-29T01:42:28.688Z,99.90
2022-08-29T01:45:03.694Z,99.90
2022-08-29T01:47:34.864Z,99.90
2022-08-29T01:50:13.082Z,99.90
2022-08-29T01:52:42.634Z,99.90
2022-08-29T01:55:10.300Z,99.90
2022-08-29T01:57:39.438Z,99.90
2022-08-29T02:00:09.767Z,99.90
2022-08-29T02:02:38.223Z,99.90
2022-08-29T02:05:05.814Z,99.90
2022-08-29T02:07:33.077Z,99.90
2022-08-29T02:10:00.312Z,99.90
2022-08-29T02:12:27.562Z,99.90
2022-08-29T02:14:54.812Z,99.90
2022-08-29T02:17:22.246Z,99.90
2022-08-29T02:19:49.446Z,99.90
2022-08-29T02:22:19.277Z,99.90
2022-08-29T02:24:46.565Z,99.90
2022-08-29T02:27:13.797Z,99.90
2022-08-29T02:29:41.051Z,99.90
2022-08-29T02:32:14.494Z,99.90
2022-08-29T02:34:47.617Z,99.90
2022-08-29T02:37:16.760Z,99.90
2022-08-29T02:39:43.992Z,99.90
2022-08-29T02:42:11.207Z,99.90
2022-08-29T02:44:38.381Z,99.90
2022-08-29T02:47:05.713Z,99.90
2022-08-29T02:49:32.945Z,99.90
2022-08-29T02:52:02.399Z,99.90
2022-08-29T02:54:29.757Z,99.90
2022-08-29T02:56:56.910Z,99.90
2022-08-29T02:59:24.121Z,99.90
2022-08-29T03:01:53.439Z,99.90
2022-08-29T03:04:20.860Z,99.90
2022-08-29T03:06:48.006Z,99.90
2022-08-29T03:09:15.174Z,99.90
2022-08-29T03:11:42.335Z,99.90
2022-08-29T03:14:09.542Z,99.90
2022-08-29T03:16:36.917Z,99.90
2022-08-29T03:19:04.175Z,99.90
2022-08-29T03:21:33.287Z,99.90
2022-08-29T03:24:00.459Z,99.90
2022-08-29T03:26:27.617Z,99.90
2022-08-29T03:28:54.792Z,99.90
2022-08-29T03:31:22.175Z,99.90
2022-08-29T03:33:49.441Z,99.90
2022-08-29T03:36:16.815Z,99.90
2022-08-29T03:38:46.285Z,99.90
2022-08-29T03:41:22.189Z,99.90
2022-08-29T03:43:49.421Z,99.90
2022-08-29T03:46:16.713Z,99.90
2022-08-29T03:48:44.143Z,99.90
2022-08-29T03:51:11.374Z,99.90
2022-08-29T03:53:38.537Z,99.90
2022-08-29T03:56:07.036Z,99.90
2022-08-29T03:58:34.699Z,99.90
2022-08-29T04:01:02.155Z,99.90
2022-08-29T04:03:31.136Z,99.90
2022-08-29T04:05:59.552Z,99.90
2022-08-29T04:08:26.762Z,99.90
2022-08-29T04:10:53.973Z,99.90
2022-08-29T04:13:21.831Z,99.90
2022-08-29T04:15:49.414Z,99.90
2022-08-29T04:18:21.274Z,99.90
2022-08-29T04:20:48.997Z,99.90
2022-08-29T04:23:16.696Z,99.90
2022-08-29T04:25:44.133Z,99.90
2022-08-29T04:28:13.649Z,99.90
2022-08-29T04:30:51.435Z,99.90
2022-08-29T04:33:22.725Z,99.90
2022-08-29T04:35:51.933Z,99.90
2022-08-29T04:38:19.689Z,99.90
2022-08-29T04:40:47.337Z,99.90
2022-08-29T04:43:14.809Z,99.90
2022-08-29T04:45:42.005Z,99.90
2022-08-29T04:48:10.670Z,99.90
2022-08-29T04:50:38.043Z,99.90
2022-08-29T04:53:05.266Z,99.90
2022-08-29T04:55:32.966Z,99.90
2022-08-29T04:58:00.520Z,99.90
2022-08-29T05:00:30.638Z,99.90
2022-08-29T05:02:58.418Z,99.90
2022-08-29T05:05:26.261Z,99.90
2022-08-29T05:07:53.791Z,99.90
2022-08-29T05:10:22.397Z,99.90
2022-08-29T05:12:49.617Z,99.90
2022-08-29T05:15:17.797Z,99.90
2022-08-29T05:17:45.086Z,99.90
2022-08-29T05:20:12.783Z,99.90
2022-08-29T05:22:40.389Z,99.90
2022-08-29T05:25:08.319Z,99.90
2022-08-29T05:27:35.567Z,99.90
2022-08-29T05:30:04.805Z,99.90
2022-08-29T05:32:32.026Z,99.90
2022-08-29T05:35:00.106Z,99.90
2022-08-29T05:37:27.284Z,99.90
2022-08-29T05:39:56.067Z,99.90
2022-08-29T05:42:23.777Z,99.90
2022-08-29T05:44:51.936Z,99.90
2022-08-29T05:47:20.277Z,99.90
2022-08-29T05:49:48.546Z,99.90
2022-08-29T05:52:18.787Z,99.90
2022-08-29T05:54:46.627Z,99.90
2022-08-29T05:57:19.337Z,99.90
2022-08-29T05:59:48.406Z,99.90
2022-08-29T06:02:16.530Z,99.90
2022-08-29T06:04:44.292Z,99.90
2022-08-29T06:07:12.802Z,99.90
2022-08-29T06:09:41.843Z,99.90
2022-08-29T06:12:10.242Z,99.90
2022-08-29T06:14:37.921Z,99.90
2022-08-29T06:17:08.094Z,99.90
2022-08-29T06:19:39.381Z,99.90
2022-08-29T06:22:09.901Z,99.90
2022-08-29T06:24:38.739Z,99.90
2022-08-29T06:27:06.151Z,99.90
2022-08-29T06:29:38.461Z,99.90
2022-08-29T06:32:12.195Z,99.90
2022-08-29T06:34:40.162Z,99.90
2022-08-29T06:37:07.440Z,99.90
2022-08-29T06:39:34.783Z,99.90
2022-08-29T06:42:02.210Z,99.90
2022-08-29T06:44:31.773Z,99.90
2022-08-29T06:46:59.407Z,99.90
2022-08-29T06:49:27.659Z,99.90
2022-08-29T06:51:58.220Z,99.90
2022-08-29T06:54:28.420Z,99.90
2022-08-29T06:56:57.778Z,99.90
2022-08-29T06:59:25.963Z,99.90
2022-08-29T07:01:55.263Z,99.90
2022-08-29T07:04:23.047Z,99.90
2022-08-29T07:06:54.300Z,99.90
2022-08-29T07:09:21.587Z,99.90
2022-08-29T07:11:48.813Z,99.90
2022-08-29T07:14:15.998Z,99.90
2022-08-29T07:16:43.251Z,99.90
2022-08-29T07:19:11.219Z,99.90
2022-08-29T07:21:38.840Z,99.90
2022-08-29T07:24:07.297Z,99.90
2022-08-29T07:26:41.293Z,99.90
2022-08-29T07:29:13.244Z,99.90
2022-08-29T07:31:41.031Z,99.90
2022-08-29T07:34:09.014Z,99.90
2022-08-29T07:36:37.195Z,99.90
2022-08-29T07:39:07.709Z,99.90
2022-08-29T07:41:35.393Z,99.90
2022-08-29T07:44:02.866Z,99.90
2022-08-29T07:46:31.491Z,99.90
2022-08-29T07:48:59.711Z,99.90
2022-08-29T07:51:27.525Z,99.90
2022-08-29T07:53:56.033Z,99.90
2022-08-29T07:56:37.622Z,99.90
2022-08-29T07:59:05.806Z,99.90
2022-08-29T08:01:33.430Z,99.90
2022-08-29T08:04:01.083Z,99.90
2022-08-29T08:06:28.393Z,99.90
2022-08-29T08:08:57.874Z,99.90
2022-08-29T08:11:27.296Z,99.90
2022-08-29T08:13:55.071Z,99.90
2022-08-29T08:16:25.131Z,99.90
2022-08-29T08:18:53.527Z,99.90
2022-08-29T08:21:21.180Z,99.90
2022-08-29T08:23:48.675Z,99.90
2022-08-29T08:26:16.359Z,99.90
2022-08-29T08:28:44.302Z,99.90
2022-08-29T08:31:14.324Z,99.90
2022-08-29T08:33:42.570Z,99.90
2022-08-29T08:36:23.194Z,99.90
2022-08-29T08:38:51.743Z,99.90
2022-08-29T08:41:27.747Z,99.90
2022-08-29T08:44:09.042Z,99.90
2022-08-29T08:46:41.017Z,99.90
2022-08-29T08:49:33.758Z,99.90
2022-08-29T08:52:06.477Z,99.90
2022-08-29T08:54:43.463Z,99.90
2022-08-29T08:57:13.522Z,99.90
2022-08-29T08:59:45.252Z,99.90
2022-08-29T09:02:12.480Z,99.90
2022-08-29T09:05:14.487Z,99.90
2022-08-29T09:07:55.078Z,99.90
2022-08-29T09:10:22.563Z,99.90
2022-08-29T09:13:21.745Z,99.90
2022-08-29T09:15:53.069Z,99.90
2022-08-29T09:18:27.127Z,99.90
2022-08-29T09:20:54.550Z,99.90
2022-08-29T09:23:28.182Z,99.90
2022-08-29T09:25:55.433Z,99.90
2022-08-29T09:28:22.712Z,99.90
2022-08-29T09:31:14.949Z,98.60
2022-08-29T09:33:46.777Z,95.50
2022-08-29T09:36:35.569Z,94.20
2022-08-29T09:39:25.646Z,91.70
2022-08-29T09:42:00.042Z,91.40
2022-08-29T09:44:30.427Z,90.60
2022-08-29T09:47:13.373Z,90.50
2022-08-29T09:49:59.983Z,87.90
2022-08-29T09:52:27.486Z,87.50
2022-08-29T09:54:54.772Z,84.90
2022-08-29T09:57:25.811Z,83.00
2022-08-29T10:00:13.766Z,80.40
2022-08-29T10:02:48.237Z,77.00
2022-08-29T10:05:40.546Z,75.50
2022-08-29T10:08:29.645Z,71.40
2022-08-29T10:11:00.279Z,69.00
2022-08-29T10:13:52.447Z,69.20
2022-08-29T10:16:45.892Z,67.60
2022-08-29T10:19:17.911Z,67.30
2022-08-29T10:22:14.354Z,66.10
2022-08-29T10:25:02.331Z,66.70
2022-08-29T10:27:51.615Z,67.30
2022-08-29T10:30:26.626Z,68.90
2022-08-29T10:32:53.796Z,70.70
2022-08-29T10:35:21.215Z,69.70
2022-08-29T10:37:59.380Z,66.10
2022-08-29T10:40:49.672Z,63.40
2022-08-29T10:43:29.074Z,62.60
2022-08-29T10:46:24.363Z,62.50
2022-08-29T10:49:05.151Z,61.70
2022-08-29T10:51:46.843Z,64.30
2022-08-29T10:54:40.438Z,66.30
2022-08-29T10:57:08.965Z,67.70
2022-08-29T10:59:54.916Z,67.70
2022-08-29T11:02:27.456Z,66.90
2022-08-29T11:04:58.999Z,67.60
2022-08-29T11:07:33.798Z,66.10
2022-08-29T11:10:04.830Z,65.10
2022-08-29T11:12:45.061Z,64.40
2022-08-29T11:15:24.718Z,64.90
2022-08-29T11:18:05.062Z,67.00
2022-08-29T11:20:40.673Z,68.10
2022-08-29T11:23:16.279Z,69.30
2022-08-29T11:25:44.633Z,69.20
2022-08-29T11:28:30.824Z,67.20
2022-08-29T11:31:24.617Z,65.30
2022-08-29T11:34:14.870Z,63.70
2022-08-29T11:37:12.945Z,63.40
2022-08-29T11:39:50.700Z,62.70
2022-08-29T11:45:13.727Z,59.20
2022-08-29T11:47:46.999Z,57.70
2022-08-29T11:50:16.999Z,57.70
2022-08-29T11:53:35.108Z,56.70
2022-08-29T11:56:14.273Z,56.90
2022-08-29T11:58:46.612Z,59.30
2022-08-29T12:01:52.231Z,60.40
2022-08-29T12:04:54.783Z,61.80
2022-08-29T12:07:41.767Z,62.60
2022-08-29T12:10:19.834Z,62.20
2022-08-29T12:12:51.273Z,63.10
2022-08-29T12:15:27.164Z,62.10
2022-08-29T12:18:02.458Z,60.20
2022-08-29T12:20:30.353Z,58.30
2022-08-29T12:23:12.838Z,56.60
2022-08-29T12:25:46.249Z,55.10
2022-08-29T12:28:23.771Z,54.90
2022-08-29T12:31:06.964Z,54.70
2022-08-29T12:34:05.879Z,54.20
2022-08-29T12:36:52.228Z,53.70
2022-08-29T12:39:38.641Z,53.30
2022-08-29T12:42:46.253Z,52.80
2022-08-29T12:45:18.811Z,51.80
2022-08-29T12:47:53.538Z,49.70
2022-08-29T12:50:25.879Z,49.00
2022-08-29T12:53:06.102Z,49.40
2022-08-29T12:55:39.755Z,50.90
2022-08-29T12:58:08.584Z,52.00
2022-08-29T13:00:36.256Z,52.00
2022-08-29T13:03:14.986Z,51.80
2022-08-29T13:05:43.467Z,51.60
2022-08-29T13:08:13.965Z,51.00
2022-08-29T13:10:56.094Z,49.80
2022-08-29T13:13:25.199Z,48.90
2022-08-29T13:15:55.376Z,47.80
2022-08-29T13:18:23.628Z,46.30
2022-08-29T13:21:06.183Z,46.40
2022-08-29T13:23:45.793Z,46.40
2022-08-29T13:26:14.068Z,46.80
2022-08-29T13:28:44.048Z,47.70
2022-08-29T13:31:16.993Z,48.50
2022-08-29T13:33:50.074Z,48.90
2022-08-29T13:36:34.031Z,49.80
2022-08-29T13:39:26.338Z,50.80
2022-08-29T13:42:02.651Z,52.10
2022-08-29T13:44:45.151Z,53.30
2022-08-29T13:47:19.991Z,54.80
2022-08-29T13:49:48.235Z,55.20
2022-08-29T13:52:17.784Z,55.30
2022-08-29T13:54:45.245Z,53.80
2022-08-29T13:57:19.058Z,51.70
2022-08-29T13:59:46.513Z,49.80
2022-08-29T14:02:14.804Z,48.90
2022-08-29T14:04:43.917Z,48.50
2022-08-29T14:07:29.668Z,47.10
2022-08-29T14:09:57.385Z,47.00
2022-08-29T14:12:33.207Z,47.10
2022-08-29T14:15:06.701Z,46.90
2022-08-29T14:17:38.865Z,48.50
2022-08-29T14:20:07.857Z,48.80
2022-08-29T14:22:35.571Z,49.10
2022-08-29T14:25:03.004Z,50.00
2022-08-29T14:27:30.829Z,50.70
2022-08-29T14:29:58.229Z,52.70
2022-08-29T14:32:26.776Z,53.20
2022-08-29T14:34:54.223Z,53.30
2022-08-29T14:37:21.685Z,53.90
2022-08-29T14:39:49.955Z,53.90
2022-08-29T14:42:18.414Z,54.00
2022-08-29T14:44:45.730Z,54.10
2022-08-29T14:47:13.120Z,54.20
2022-08-29T14:49:40.800Z,55.40
2022-08-29T14:52:08.173Z,55.90
2022-08-29T14:54:35.419Z,55.40
2022-08-29T14:57:02.946Z,54.00
2022-08-29T14:59:30.149Z,53.90
2022-08-29T15:01:57.471Z,53.20
2022-08-29T15:04:36.021Z,52.70
2022-08-29T15:07:06.493Z,52.30
2022-08-29T15:09:33.731Z,52.40
2022-08-29T15:12:01.291Z,52.40
2022-08-29T15:14:28.480Z,53.10
2022-08-29T15:16:55.652Z,52.90
2022-08-29T15:20:18.107Z,53.80
2022-08-29T15:22:11.451Z,55.10
2022-08-29T15:24:39.588Z,56.10
2022-08-29T15:27:07.400Z,56.60
2022-08-29T15:29:37.232Z,56.20
2022-08-29T15:32:04.762Z,55.90
2022-08-29T15:34:32.457Z,55.00
2022-08-29T15:37:00.891Z,54.80
2022-08-29T15:39:28.563Z,55.80
2022-08-29T15:41:57.407Z,55.90
2022-08-29T15:44:25.440Z,55.40
2022-08-29T15:46:56.269Z,55.80
2022-08-29T15:49:25.770Z,56.80
2022-08-29T15:51:53.758Z,57.30
2022-08-29T15:54:22.859Z,56.80
2022-08-29T15:56:50.581Z,57.10
2022-08-29T15:59:27.633Z,58.20
2022-08-29T16:02:03.883Z,59.00
2022-08-29T16:04:31.423Z,59.50
2022-08-29T16:06:58.939Z,60.40
2022-08-29T16:09:26.146Z,60.50
2022-08-29T16:11:53.451Z,60.50
2022-08-29T16:14:58.102Z,59.90
2022-08-29T16:17:09.504Z,59.90
2022-08-29T16:19:41.673Z,60.90
2022-08-29T16:22:09.226Z,61.20
2022-08-29T16:24:36.804Z,62.00
2022-08-29T16:27:04.475Z,62.10
2022-08-29T16:29:31.661Z,62.60
2022-08-29T16:31:59.529Z,63.30
2022-08-29T16:34:28.447Z,63.70
2022-08-29T16:37:00.777Z,63.90
2022-08-29T16:39:29.231Z,64.00
2022-08-29T16:41:56.732Z,63.60
2022-08-29T16:44:24.338Z,64.20
2022-08-29T16:46:52.289Z,64.40
2022-08-29T16:49:19.574Z,65.00
2022-08-29T16:51:46.802Z,65.00
2022-08-29T16:54:16.009Z,65.40
2022-08-29T16:56:44.508Z,66.00
2022-08-29T16:59:12.495Z,66.10
2022-08-29T17:01:45.559Z,65.50
2022-08-29T17:04:22.093Z,66.00
2022-08-29T17:06:49.648Z,66.00
2022-08-29T17:09:18.746Z,66.80
2022-08-29T17:11:46.924Z,67.00
2022-08-29T17:14:15.940Z,67.50
2022-08-29T17:16:45.799Z,68.40
2022-08-29T17:19:14.739Z,69.00
2022-08-29T17:21:42.974Z,69.30
2022-08-29T17:24:11.917Z,69.30
2022-08-29T17:26:42.744Z,70.00
2022-08-29T17:29:10.546Z,70.80
2022-08-29T17:31:38.972Z,71.30
2022-08-29T17:34:08.624Z,72.20
2022-08-29T17:36:37.252Z,72.60
2022-08-29T17:39:06.515Z,72.60
2022-08-29T17:41:37.103Z,72.80
2022-08-29T17:44:07.379Z,72.90
2022-08-29T17:46:35.198Z,73.10
2022-08-29T17:49:07.632Z,73.60
2022-08-29T17:51:38.905Z,73.80
2022-08-29T17:54:12.056Z,73.60
2022-08-29T17:56:46.492Z,73.80
2022-08-29T17:59:15.929Z,74.00
2022-08-29T18:01:44.134Z,74.60
2022-08-29T18:04:11.844Z,75.40
2022-08-29T18:06:39.735Z,75.60
2022-08-29T18:09:07.669Z,76.40
2022-08-29T18:11:40.300Z,76.70
2022-08-29T18:14:08.559Z,78.80
2022-08-29T18:16:36.490Z,78.60
2022-08-29T18:19:04.504Z,78.60
2022-08-29T18:21:32.836Z,79.00
2022-08-29T18:24:00.748Z,79.50
2022-08-29T18:26:28.333Z,80.50
2022-08-29T18:28:55.871Z,80.70
2022-08-29T18:31:23.640Z,81.00
2022-08-29T18:34:06.441Z,81.30
2022-08-29T18:36:35.626Z,81.70
2022-08-29T18:39:05.110Z,82.00
2022-08-29T18:41:32.685Z,82.60
2022-08-29T18:43:59.928Z,82.90
2022-08-29T18:46:28.010Z,83.20
2022-08-29T18:48:55.350Z,83.80
2022-08-29T18:51:22.968Z,84.30
2022-08-29T18:53:50.380Z,84.80
2022-08-29T18:56:17.958Z,85.20
2022-08-29T18:58:45.195Z,85.60
2022-08-29T19:01:27.454Z,85.80
2022-08-29T19:03:57.617Z,86.70
2022-08-29T19:06:25.941Z,86.00
2022-08-29T19:08:55.057Z,86.10
2022-08-29T19:11:22.622Z,86.30
2022-08-29T19:13:52.485Z,86.30
2022-08-29T19:16:21.550Z,86.60
2022-08-29T19:18:49.476Z,86.80
2022-08-29T19:21:16.713Z,87.50
2022-08-29T19:23:51.333Z,88.30
2022-08-29T19:26:29.790Z,88.70
2022-08-29T19:28:59.395Z,89.20
2022-08-29T19:31:28.871Z,89.70
2022-08-29T19:33:57.265Z,90.30
2022-08-29T19:36:25.773Z,90.40
2022-08-29T19:38:53.561Z,90.70
2022-08-29T19:41:21.012Z,90.90
2022-08-29T19:43:48.719Z,91.10
2022-08-29T19:46:20.236Z,91.90
2022-08-29T19:48:51.597Z,91.80
2022-08-29T19:51:24.533Z,91.60
2022-08-29T19:53:53.813Z,91.50
2022-08-29T19:56:21.076Z,92.00
2022-08-29T19:58:49.460Z,92.30
2022-08-29T20:01:17.259Z,92.40
2022-08-29T20:03:44.720Z,92.90
2022-08-29T20:06:12.346Z,93.20
2022-08-29T20:08:43.608Z,93.50
2022-08-29T20:11:16.313Z,93.20
2022-08-29T20:13:50.453Z,92.90
2022-08-29T20:16:21.524Z,93.10
2022-08-29T20:18:50.143Z,93.20
2022-08-29T20:21:19.457Z,93.40
2022-08-29T20:23:49.660Z,93.50
2022-08-29T20:26:22.794Z,93.60
2022-08-29T20:28:52.246Z,94.00
2022-08-29T20:31:20.165Z,93.70
2022-08-29T20:33:48.840Z,94.20
2022-08-29T20:36:38.551Z,94.30
2022-08-29T20:39:11.254Z,94.50
2022-08-29T20:41:38.578Z,95.20
2022-08-29T20:44:10.160Z,95.20
2022-08-29T20:46:40.181Z,95.40
2022-08-29T20:49:09.326Z,95.50
2022-08-29T20:51:37.651Z,96.00
2022-08-29T20:54:06.328Z,96.50
2022-08-29T20:56:33.545Z,96.80
2022-08-29T20:59:00.751Z,97.00
2022-08-29T21:01:27.967Z,97.10
2022-08-29T21:04:13.814Z,97.40
2022-08-29T21:06:41.129Z,97.80
2022-08-29T21:09:09.056Z,98.10
2022-08-29T21:11:36.381Z,98.70
2022-08-29T21:14:03.972Z,99.10
2022-08-29T21:16:31.407Z,99.90
2022-08-29T21:18:58.640Z,99.90
2022-08-29T21:21:26.466Z,99.90
2022-08-29T21:23:53.742Z,99.90
2022-08-29T21:26:21.212Z,99.90
2022-08-29T21:28:48.443Z,99.90
2022-08-29T21:31:16.553Z,99.90
2022-08-29T21:33:45.319Z,99.90
2022-08-29T21:36:19.327Z,99.90
2022-08-29T21:38:48.256Z,99.90
2022-08-29T21:41:15.516Z,99.90
2022-08-29T21:43:43.330Z,99.90
2022-08-29T21:46:19.065Z,99.90
2022-08-29T21:48:47.431Z,99.90
2022-08-29T21:51:18.536Z,99.90
2022-08-29T21:53:47.349Z,99.90
2022-08-29T21:56:14.690Z,99.90
2022-08-29T21:58:42.135Z,99.90
2022-08-29T22:01:11.237Z,99.90
2022-08-29T22:03:39.649Z,99.90
2022-08-29T22:06:09.210Z,99.90
2022-08-29T22:08:38.856Z,99.90
2022-08-29T22:11:14.885Z,99.90
2022-08-29T22:13:42.262Z,99.90
2022-08-29T22:16:28.824Z,99.90
2022-08-29T22:19:09.984Z,99.90
2022-08-29T22:21:40.734Z,99.90
2022-08-29T22:24:08.443Z,99.90
2022-08-29T22:26:36.246Z,99.90
2022-08-29T22:29:04.560Z,99.90
2022-08-29T22:31:32.046Z,99.90
2022-08-29T22:34:00.312Z,99.90
2022-08-29T22:36:27.794Z,99.90
2022-08-29T22:38:56.756Z,99.90
2022-08-29T22:41:24.622Z,99.90
2022-08-29T22:44:11.381Z,99.90
2022-08-29T22:46:45.096Z,99.90
2022-08-29T22:49:12.546Z,99.90
2022-08-29T22:51:39.796Z,99.90
2022-08-29T22:54:25.519Z,99.90
2022-08-29T22:56:54.598Z,99.90
2022-08-29T22:59:22.267Z,99.90
2022-08-29T23:01:49.545Z,99.90
2022-08-29T23:04:16.834Z,99.90
2022-08-29T23:06:44.141Z,99.90
2022-08-29T23:09:12.850Z,99.90
2022-08-29T23:11:40.596Z,99.90
2022-08-29T23:14:09.262Z,99.90
2022-08-29T23:16:40.391Z,99.90
2022-08-29T23:19:07.774Z,99.90
2022-08-29T23:21:35.354Z,99.90
2022-08-29T23:24:07.164Z,99.90
2022-08-29T23:26:35.265Z,99.90
2022-08-29T23:29:02.976Z,99.90
2022-08-29T23:31:30.254Z,99.90
2022-08-29T23:33:57.619Z,99.90
2022-08-29T23:36:24.894Z,99.90
2022-08-29T23:38:52.606Z,99.90
2022-08-29T23:41:20.043Z,99.90
2022-08-29T23:43:47.711Z,99.90
2022-08-29T23:46:15.064Z,99.90
2022-08-29T23:48:43.454Z,99.90
2022-08-29T23:51:13.702Z,99.90
2022-08-29T23:53:42.353Z,99.90
2022-08-29T23:56:15.369Z,99.90
2022-08-29T23:58:43.418Z,99.90
